Time;durP1;ratioP1;P1;durP2;ratioP2;P2;SDS_P1;SDS_P2;PMS_P1;PMS_P2;Temp;Humidity;BMP_temperature;BMP_pressure;BME280_temperature;BME280_humidity;BME280_pressure;Samples;Min_cycle;Max_cycle;Signal;HPM_P1;HPM_P2
2022/12/04 00:00:00;;;;;;;174.98;39.03;;;;;;;-0.30;100.00;101189.47;6521152;22;20338;-71
2022/12/04 00:02:32;;;;;;;155.73;39.53;;;;;;;-0.34;100.00;101190.28;6531277;22;20424;-71
2022/12/04 00:05:04;;;;;;;153.02;36.28;;;;;;;-0.33;100.00;101190.31;6520916;22;20080;-72
2022/12/04 00:07:35;;;;;;;152.13;38.45;;;;;;;-0.32;100.00;101181.78;6531890;22;19995;-71
2022/12/04 00:10:06;;;;;;;148.30;36.67;;;;;;;-0.31;100.00;101185.19;6532089;22;20354;-72
2022/12/04 00:12:36;;;;;;;134.15;35.45;;;;;;;-0.25;100.00;101181.03;6521422;22;19995;-72
2022/12/04 00:15:07;;;;;;;132.63;34.70;;;;;;;-0.25;100.00;101188.72;6531244;22;20041;-72
2022/12/04 00:17:37;;;;;;;120.93;35.13;;;;;;;-0.21;100.00;101176.81;6521046;22;19995;-72
2022/12/04 00:20:08;;;;;;;139.15;34.05;;;;;;;-0.28;100.00;101172.41;6494181;22;20067;-72
2022/12/04 00:22:38;;;;;;;139.38;36.17;;;;;;;-0.30;100.00;101176.66;6529980;22;20010;-73
2022/12/04 00:25:09;;;;;;;136.75;35.75;;;;;;;-0.28;100.00;101178.41;6531233;22;19999;-72
2022/12/04 00:27:39;;;;;;;131.82;33.17;;;;;;;-0.32;100.00;101179.22;6531668;22;20401;-72
2022/12/04 00:30:10;;;;;;;131.65;34.35;;;;;;;-0.28;100.00;101174.97;6531738;22;20007;-72
2022/12/04 00:32:40;;;;;;;128.13;33.60;;;;;;;-0.25;100.00;101170.75;6521803;22;20330;-72
2022/12/04 00:35:11;;;;;;;124.22;33.05;;;;;;;-0.23;100.00;101171.66;6530995;22;20003;-72
2022/12/04 00:37:41;;;;;;;124.72;33.72;;;;;;;-0.29;100.00;101175.81;6531365;22;20003;-72
2022/12/04 00:40:12;;;;;;;130.73;35.75;;;;;;;-0.28;100.00;101174.97;6531719;22;19999;-72
2022/12/04 00:42:42;;;;;;;129.27;34.72;;;;;;;-0.27;100.00;101172.44;6532084;22;19999;-72
2022/12/04 00:45:12;;;;;;;129.05;33.92;;;;;;;-0.29;100.00;101170.66;6530952;22;19999;-72
2022/12/04 00:47:43;;;;;;;137.65;34.85;;;;;;;-0.27;100.00;101164.72;6530244;22;20000;-72
2022/12/04 00:50:14;;;;;;;135.77;34.67;;;;;;;-0.22;100.00;101164.81;6494174;22;20057;-74
2022/12/04 00:52:44;;;;;;;120.85;33.20;;;;;;;-0.28;100.00;101163.00;6531549;22;20334;-72
2022/12/04 00:55:15;;;;;;;110.63;32.08;;;;;;;-0.27;100.00;101163.84;6530702;22;20004;-72
2022/12/04 00:57:45;;;;;;;109.20;32.10;;;;;;;-0.27;100.00;101177.56;6493280;22;19999;-72
2022/12/04 01:00:17;;;;;;;126.80;33.00;;;;;;;-0.20;100.00;101176.81;6532016;22;20030;-72
2022/12/04 01:02:47;;;;;;;117.93;32.95;;;;;;;-0.22;100.00;101172.53;6532684;22;20021;-72
2022/12/04 01:05:18;;;;;;;117.60;31.38;;;;;;;-0.20;100.00;101168.28;6533050;22;19999;-73
2022/12/04 01:07:48;;;;;;;107.05;30.80;;;;;;;-0.20;100.00;101166.56;6532586;22;20002;-72
2022/12/04 01:10:19;;;;;;;107.90;31.73;;;;;;;-0.19;100.00;101167.44;6533723;22;20316;-72
2022/12/04 01:12:51;;;;;;;108.15;31.85;;;;;;;-0.15;100.00;101158.94;6534114;22;20006;-73
2022/12/04 01:15:22;;;;;;;100.90;29.70;;;;;;;-0.16;100.00;101162.34;6533319;22;20370;-71
2022/12/04 01:17:52;;;;;;;109.72;31.23;;;;;;;-0.13;100.00;101158.13;6533506;22;20009;-73
2022/12/04 01:20:22;;;;;;;106.25;31.20;;;;;;;-0.14;100.00;101152.97;6533785;22;20034;-72
2022/12/04 01:22:52;;;;;;;90.65;28.58;;;;;;;-0.19;100.00;101163.16;6523504;22;20045;-72
2022/12/04 01:25:23;;;;;;;105.75;31.83;;;;;;;-0.15;100.00;101153.78;6522643;22;19996;-72
2022/12/04 01:27:53;;;;;;;109.60;32.13;;;;;;;-0.18;100.00;101153.75;6522829;22;20307;-72
2022/12/04 01:30:23;;;;;;;107.68;31.48;;;;;;;-0.16;100.00;101147.81;6533348;22;20014;-72
2022/12/04 01:32:54;;;;;;;104.05;31.10;;;;;;;-0.17;100.00;101153.78;6522720;22;20007;-72
2022/12/04 01:35:24;;;;;;;101.43;30.67;;;;;;;-0.18;100.00;101153.75;6532828;22;20616;-72
2022/12/04 01:37:54;;;;;;;108.30;32.15;;;;;;;-0.13;100.00;101149.53;6532773;22;20011;-71
2022/12/04 01:40:25;;;;;;;108.13;32.13;;;;;;;-0.16;100.00;101152.06;6532207;22;20010;-72
2022/12/04 01:42:55;;;;;;;107.88;33.53;;;;;;;-0.16;100.00;101152.06;6533366;22;20387;-72
2022/12/04 01:45:40;;;;;;;118.07;32.92;;;;;;;-0.14;100.00;101145.25;6531822;22;20009;-72
2022/12/04 01:48:17;;;;;;;106.63;32.00;;;;;;;-0.14;100.00;101142.69;6485985;22;19996;-72
2022/12/04 01:50:52;;;;;;;116.38;34.47;;;;;;;-0.20;100.00;101140.88;6531945;22;20027;-71
2022/12/04 01:53:23;;;;;;;119.57;35.45;;;;;;;-0.18;100.00;101139.19;6532979;22;19996;-72
2022/12/04 01:55:55;;;;;;;115.28;33.50;;;;;;;-0.20;100.00;101134.91;6493849;22;20011;-72
2022/12/04 01:58:29;;;;;;;123.95;35.65;;;;;;;-0.11;100.00;101141.03;6532585;22;20007;-72
2022/12/04 02:01:03;;;;;;;121.47;35.10;;;;;;;-0.16;100.00;101134.09;6532737;22;20430;-72
2022/12/04 02:03:34;;;;;;;118.10;34.83;;;;;;;-0.10;100.00;101134.19;6532494;22;20003;-70
2022/12/04 02:06:05;;;;;;;117.07;34.72;;;;;;;-0.16;100.00;101136.66;6494262;22;20011;-73
2022/12/04 02:08:36;;;;;;;124.13;36.10;;;;;;;-0.18;100.00;101135.78;6532567;22;20015;-72
2022/12/04 02:11:24;;;;;;;118.43;36.13;;;;;;;-0.18;100.00;101138.34;6530921;22;20011;-72
2022/12/04 02:14:22;;;;;;;119.70;34.58;;;;;;;-0.16;100.00;101139.22;6494140;22;20018;-72
2022/12/04 02:17:08;;;;;;;129.30;36.28;;;;;;;-0.15;100.00;101138.38;6532672;22;19999;-72
2022/12/04 02:19:55;;;;;;;118.55;35.45;;;;;;;-0.17;100.00;101130.69;6531398;22;20052;-72
2022/12/04 02:22:54;;;;;;;133.50;36.83;;;;;;;-0.18;100.00;101133.22;6532729;22;20006;-71
2022/12/04 02:25:36;;;;;;;117.22;35.35;;;;;;;-0.16;100.00;101136.66;6532231;22;20398;-72
2022/12/04 02:28:28;;;;;;;135.95;38.85;;;;;;;-0.16;100.00;101141.81;6494196;22;20006;-72
2022/12/04 02:31:01;;;;;;;126.10;36.28;;;;;;;-0.16;100.00;101134.09;6532684;22;20347;-72
2022/12/04 02:33:47;;;;;;;128.52;38.22;;;;;;;-0.18;100.00;101122.94;6494183;22;20012;-72
2022/12/04 02:36:22;;;;;;;;;;;;;;;-0.11;100.00;101135.03;6532258;22;20014;-71
2022/12/04 02:39:08;;;;;;;111.15;34.15;;;;;;;-0.12;100.00;101125.59;6531535;22;19912;-71
2022/12/04 02:41:41;;;;;;;;;;;;;;;-0.13;100.00;101129.88;6522437;22;20003;-72
2022/12/04 02:44:21;;;;;;;119.60;36.00;;;;;;;-0.14;100.00;101124.72;6520694;22;19934;-72
2022/12/04 02:46:56;;;;;;;121.47;38.65;;;;;;;-0.07;100.00;101119.69;6520016;22;19999;-72
2022/12/04 02:49:34;;;;;;;117.85;35.60;;;;;;;-0.11;100.00;101119.63;6532276;22;20003;-72
2022/12/04 02:52:13;;;;;;;122.90;37.75;;;;;;;-0.13;100.00;101119.59;6494317;22;20003;-72
2022/12/04 02:54:52;;;;;;;130.63;38.88;;;;;;;-0.13;100.00;101121.31;6531351;22;20003;-71
2022/12/04 02:57:29;;;;;;;131.93;37.95;;;;;;;-0.05;100.00;101124.88;6531221;22;20335;-72
2022/12/04 03:00:04;;;;;;;120.53;39.05;;;;;;;-0.08;100.00;101119.69;6531092;22;20010;-73
2022/12/04 03:02:41;;;;;;;;;;;;;;;-0.07;100.00;101118.84;6530797;22;20018;-72
2022/12/04 03:05:17;;;;;;;113.35;36.50;;;;;;;-0.07;100.00;101118.84;6530701;22;19902;-72
2022/12/04 03:07:57;;;;;;;117.45;36.95;;;;;;;-0.08;100.00;101117.13;6531306;22;19991;-73
2022/12/04 03:10:33;;;;;;;123.55;38.00;;;;;;;-0.08;100.00;101112.84;6531530;22;19999;-72
2022/12/04 03:13:10;;;;;;;123.10;38.17;;;;;;;-0.03;100.00;101112.91;6493263;22;20078;-72
2022/12/04 03:15:46;;;;;;;123.00;39.40;;;;;;;-0.05;100.00;101112.03;6530936;22;20473;-72
2022/12/04 03:18:29;;;;;;;116.78;37.90;;;;;;;-0.04;100.00;101113.75;6493192;22;20041;-72
2022/12/04 03:21:03;;;;;;;117.50;39.10;;;;;;;-0.03;100.00;101118.03;6493970;22;20468;-72
2022/12/04 03:23:41;;;;;;;130.13;40.50;;;;;;;-0.03;100.00;101108.63;6531765;22;20003;-72
2022/12/04 03:26:48;;;;;;;123.55;39.40;;;;;;;-0.05;100.00;101105.16;6531362;22;20051;-72
2022/12/04 03:29:23;;;;;;;118.45;39.25;;;;;;;-0.03;100.00;101097.50;6491718;22;20010;-71
2022/12/04 03:32:20;;;;;;;;;;;;;;;-0.03;100.00;101096.66;6532262;22;20315;-72
2022/12/04 03:34:58;;;;;;;131.43;40.03;;;;;;;-0.04;100.00;101086.34;6517617;22;19941;-73
2022/12/04 03:37:40;;;;;;;122.63;41.00;;;;;;;-0.05;100.00;101091.47;6529492;22;20010;-72
2022/12/04 03:40:22;;;;;;;125.93;40.10;;;;;;;-0.03;100.00;101087.22;6531395;22;20030;-72
2022/12/04 03:43:18;;;;;;;123.28;40.53;;;;;;;-0.06;100.00;101087.19;6530519;22;19999;-72
2022/12/04 03:46:15;;;;;;;138.73;42.10;;;;;;;-0.03;100.00;101084.66;6530767;22;20435;-70
2022/12/04 03:49:07;;;;;;;126.78;41.17;;;;;;;0.06;100.00;101096.78;6529927;22;20022;-73
2022/12/04 03:51:46;;;;;;;129.82;41.38;;;;;;;0.01;100.00;101095.84;6530876;22;19999;-71
2022/12/04 03:54:22;;;;;;;126.28;39.97;;;;;;;-0.03;100.00;101092.38;6530462;22;20439;-72
2022/12/04 03:56:59;;;;;;;126.53;41.92;;;;;;;-0.03;100.00;101089.78;6491247;22;19999;-72
2022/12/04 03:59:39;;;;;;;132.02;41.53;;;;;;;-0.04;100.00;101095.78;6530442;22;20077;-72
2022/12/04 04:02:15;;;;;;;126.80;41.75;;;;;;;0.00;100.00;101099.25;6492165;22;20003;-71
2022/12/04 04:04:50;;;;;;;123.80;40.65;;;;;;;0.00;100.00;101095.84;6528820;22;20006;-70
2022/12/04 04:07:23;;;;;;;;;;;;;;;0.03;100.00;101098.47;6518942;22;20002;-70
2022/12/04 04:09:59;;;;;;;123.00;39.53;;;;;;;0.07;100.00;101095.94;6518148;22;19961;-71
2022/12/04 04:12:34;;;;;;;124.82;41.00;;;;;;;0.01;100.00;101090.72;6529043;22;20049;-70
2022/12/04 04:26:44;;;;;;;118.10;38.65;;;;;;;0.09;100.00;101093.41;6529019;22;20180;-70
2022/12/04 04:29:14;;;;;;;121.75;40.50;;;;;;;0.09;100.00;101086.56;6531215;22;20027;-73
2022/12/04 04:32:02;;;;;;;125.93;41.47;;;;;;;0.08;100.00;101087.38;6532939;22;19999;-73
2022/12/04 04:34:47;;;;;;;114.68;40.17;;;;;;;0.14;100.00;101086.59;6532572;22;20442;-71
2022/12/04 04:37:45;;;;;;;124.22;40.05;;;;;;;0.10;100.00;101096.00;6518565;22;20004;-70
2022/12/04 04:40:38;;;;;;;124.88;40.28;;;;;;;0.12;100.00;101093.44;6492417;22;20003;-70
2022/12/04 04:43:35;;;;;;;119.75;42.00;;;;;;;0.11;100.00;101097.72;6530389;22;20064;-71
2022/12/04 04:46:11;;;;;;;113.78;39.20;;;;;;;0.16;100.00;101095.19;6530768;22;20003;-70
2022/12/04 04:48:47;;;;;;;123.97;40.78;;;;;;;0.17;100.00;101097.81;6529487;22;19999;-70
2022/12/04 04:51:19;;;;;;;119.55;39.55;;;;;;;0.18;100.00;101088.41;6530322;22;20092;-72
2022/12/04 04:53:52;;;;;;;115.30;40.30;;;;;;;0.16;100.00;101088.38;6533526;22;20006;-72
2022/12/04 04:56:23;;;;;;;120.38;40.35;;;;;;;0.20;100.00;101087.56;6501870;22;20435;-74
2022/12/04 04:58:53;;;;;;;115.45;38.67;;;;;;;0.17;100.00;101077.25;6470023;22;20212;-75
2022/12/04 05:01:27;;;;;;;132.40;41.78;;;;;;;0.16;100.00;101083.22;6498303;22;20011;-73
2022/12/04 05:03:57;;;;;;;109.18;39.17;;;;;;;0.18;100.00;101099.53;6497927;22;20061;-73
2022/12/04 05:06:27;;;;;;;121.55;41.05;;;;;;;0.20;100.00;101097.84;6459206;22;20003;-73
2022/12/04 05:08:58;;;;;;;118.82;38.97;;;;;;;0.20;100.00;101095.28;6498084;22;20454;-73
2022/12/04 05:11:29;;;;;;;113.80;40.42;;;;;;;0.17;100.00;101105.50;6497931;22;20007;-75
2022/12/04 05:13:59;;;;;;;114.65;39.78;;;;;;;0.17;100.00;101107.19;6498194;22;20423;-74
2022/12/04 05:16:29;;;;;;;115.93;42.00;;;;;;;0.18;100.00;101098.69;6459647;22;20024;-74
2022/12/04 05:21:49;;;;;;;108.82;39.60;;;;;;;0.19;100.00;101105.56;6497425;22;20512;-73
2022/12/04 05:24:19;;;;;;;111.85;39.13;;;;;;;0.21;100.00;101111.56;6497525;22;20007;-73
2022/12/04 05:26:49;;;;;;;118.00;40.72;;;;;;;0.17;100.00;101100.38;6486529;22;20078;-74
2022/12/04 05:29:20;;;;;;;114.35;40.00;;;;;;;0.21;100.00;101101.28;6497102;22;20433;-75
2022/12/04 05:31:50;;;;;;;112.82;40.92;;;;;;;0.17;100.00;101090.09;6497247;22;20006;-75
2022/12/04 05:34:20;;;;;;;109.90;38.03;;;;;;;0.17;100.00;101096.94;6496906;22;20010;-74
2022/12/04 05:36:51;;;;;;;111.30;39.72;;;;;;;0.19;100.00;101092.69;6486389;22;20007;-73
2022/12/04 05:39:21;;;;;;;110.28;40.28;;;;;;;0.20;100.00;101087.56;6497275;22;20004;-74
2022/12/04 05:41:51;;;;;;;111.18;37.78;;;;;;;0.18;100.00;101096.97;6459829;22;20003;-74
2022/12/04 05:44:22;;;;;;;117.90;40.78;;;;;;;0.17;100.00;101092.66;6497630;22;20359;-73
2022/12/04 05:46:52;;;;;;;112.75;38.63;;;;;;;0.17;100.00;101091.78;6496852;22;20002;-73
2022/12/04 05:49:23;;;;;;;108.25;38.50;;;;;;;0.19;100.00;101090.13;6496569;22;19999;-74
2022/12/04 05:51:53;;;;;;;106.05;38.70;;;;;;;0.22;100.00;101098.72;6487663;22;20007;-73
2022/12/04 05:54:23;;;;;;;109.30;38.38;;;;;;;0.18;100.00;101089.25;6497192;22;20028;-73
2022/12/04 05:56:54;;;;;;;101.60;37.78;;;;;;;0.23;100.00;101097.88;6497154;22;20052;-74
2022/12/04 05:59:24;;;;;;;107.07;38.42;;;;;;;0.17;100.00;101097.81;6496064;22;20004;-72
2022/12/04 06:01:54;;;;;;;104.75;37.83;;;;;;;0.23;100.00;101092.75;6497531;22;20006;-73
2022/12/04 06:04:25;;;;;;;106.85;38.38;;;;;;;0.22;100.00;101100.44;6497126;22;20004;-73
2022/12/04 06:06:55;;;;;;;106.93;38.17;;;;;;;0.15;100.00;101102.06;6496655;22;20000;-73
2022/12/04 06:09:25;;;;;;;107.35;37.88;;;;;;;0.19;100.00;101101.25;6485489;22;20462;-73
2022/12/04 06:11:56;;;;;;;109.63;39.03;;;;;;;0.18;100.00;101102.09;6497593;22;20011;-73
2022/12/04 06:14:27;;;;;;;106.05;39.47;;;;;;;0.17;100.00;101096.94;6458953;22;20073;-74
2022/12/04 06:16:57;;;;;;;111.20;40.10;;;;;;;0.17;100.00;101102.06;6496675;22;19996;-75
2022/12/04 06:19:27;;;;;;;113.45;40.15;;;;;;;0.18;100.00;101104.66;6496582;22;20202;-73
2022/12/04 06:21:58;;;;;;;111.20;40.00;;;;;;;0.18;100.00;101108.97;6496771;22;20410;-74
2022/12/04 06:24:28;;;;;;;103.22;38.42;;;;;;;0.18;100.00;101114.94;6458717;22;20082;-74
2022/12/04 06:26:59;;;;;;;111.45;38.28;;;;;;;0.19;100.00;101105.56;6496934;22;20008;-73
2022/12/04 06:29:29;;;;;;;111.45;40.35;;;;;;;0.25;100.00;101103.06;6497147;22;20075;-73
2022/12/04 06:32:00;;;;;;;111.40;40.05;;;;;;;0.18;100.00;101109.81;6496832;22;19999;-74
2022/12/04 06:34:31;;;;;;;115.40;39.47;;;;;;;0.17;100.00;101107.19;6496150;22;20000;-73
2022/12/04 06:37:01;;;;;;;108.60;38.72;;;;;;;0.19;100.00;101111.53;6496591;22;20335;-73
2022/12/04 06:39:31;;;;;;;113.30;40.20;;;;;;;0.18;100.00;101111.53;6496320;22;20159;-73
2022/12/04 06:42:02;;;;;;;107.72;39.72;;;;;;;0.21;100.00;101107.28;6497541;22;20050;-73
2022/12/04 06:44:32;;;;;;;110.88;38.28;;;;;;;0.24;100.00;101116.75;6495910;22;20000;-73
2022/12/04 06:47:02;;;;;;;109.07;39.90;;;;;;;0.19;100.00;101121.81;6484287;22;20000;-75
2022/12/04 06:49:33;;;;;;;108.60;38.17;;;;;;;0.19;100.00;101111.53;6485924;22;20004;-73
2022/12/04 06:52:03;;;;;;;105.95;37.88;;;;;;;0.17;100.00;101114.91;6496741;22;20003;-73
2022/12/04 06:54:33;;;;;;;105.18;38.88;;;;;;;0.17;100.00;101118.34;6469147;22;20004;-73
2022/12/04 06:57:04;;;;;;;108.85;38.25;;;;;;;0.21;100.00;101117.56;6496115;22;19999;-73
2022/12/04 06:59:35;;;;;;;111.05;39.53;;;;;;;0.17;100.00;101118.34;6495904;22;20402;-73
2022/12/04 07:02:05;;;;;;;104.90;38.90;;;;;;;0.18;100.00;101124.38;6496459;22;20187;-73
2022/12/04 07:04:35;;;;;;;116.97;39.92;;;;;;;0.16;100.00;101120.91;6496123;22;20111;-75
2022/12/04 07:07:09;;;;;;;103.47;39.10;;;;;;;0.19;100.00;101118.41;6458181;22;20501;-76
2022/12/04 07:09:39;;;;;;;112.03;38.83;;;;;;;0.20;100.00;101125.25;6483852;22;20312;-73
2022/12/04 07:12:09;;;;;;;107.10;39.35;;;;;;;0.17;100.00;101120.06;6497260;22;20006;-73
2022/12/04 07:14:40;;;;;;;109.72;38.13;;;;;;;0.20;100.00;101120.97;6496965;22;20007;-75
2022/12/04 07:17:10;;;;;;;112.97;40.00;;;;;;;0.15;100.00;101135.47;6497110;22;20045;-73
2022/12/04 07:19:40;;;;;;;108.38;38.40;;;;;;;0.19;100.00;101142.38;6487522;22;20415;-74
2022/12/04 07:22:11;;;;;;;106.47;39.90;;;;;;;0.20;100.00;101138.09;6497320;22;20000;-75
2022/12/04 07:24:41;;;;;;;109.18;38.00;;;;;;;0.18;100.00;101127.78;6497129;22;19996;-74
2022/12/04 07:27:11;;;;;;;114.50;40.13;;;;;;;0.19;100.00;101126.94;6497008;22;20327;-75
2022/12/04 07:29:42;;;;;;;114.45;40.88;;;;;;;0.18;100.00;101126.94;6497489;22;19996;-73
2022/12/04 07:32:12;;;;;;;122.20;41.72;;;;;;;0.18;100.00;101127.78;6496624;22;20023;-73
2022/12/04 07:34:43;;;;;;;112.55;39.60;;;;;;;0.15;100.00;101125.19;6496304;22;20007;-73
2022/12/04 07:37:13;;;;;;;115.57;40.72;;;;;;;0.18;100.00;101125.22;6496749;22;20354;-74
2022/12/04 07:39:43;;;;;;;120.57;41.25;;;;;;;0.15;100.00;101127.75;6496602;22;20471;-73
2022/12/04 07:42:13;;;;;;;111.18;39.90;;;;;;;0.18;100.00;101124.38;6496006;22;20078;-73
2022/12/04 07:44:44;;;;;;;116.60;40.75;;;;;;;0.21;100.00;101121.84;6496339;22;20500;-74
2022/12/04 07:47:14;;;;;;;111.95;41.20;;;;;;;0.20;100.00;101125.25;6495104;22;19991;-75
2022/12/04 07:49:44;;;;;;;104.43;36.35;;;;;;;0.27;100.00;101115.09;6459145;22;20331;-75
2022/12/04 07:52:15;;;;;;;111.90;39.25;;;;;;;0.16;100.00;101126.91;6458784;22;20003;-74
2022/12/04 07:54:45;;;;;;;120.32;41.45;;;;;;;0.24;100.00;101112.44;6459132;22;20554;-75
2022/12/04 07:57:15;;;;;;;113.93;40.45;;;;;;;0.23;100.00;101120.16;6496929;22;20053;-75
2022/12/04 07:59:45;;;;;;;110.88;40.65;;;;;;;0.27;100.00;101109.94;6487077;22;20035;-76
2022/12/04 08:02:16;;;;;;;118.57;40.92;;;;;;;0.21;100.00;101109.00;6497435;22;20031;-73
2022/12/04 08:04:46;;;;;;;110.03;39.50;;;;;;;0.24;100.00;101106.47;6486583;22;20006;-74
2022/12/04 08:07:17;;;;;;;113.13;41.38;;;;;;;0.23;100.00;101103.03;6488001;22;19995;-75
2022/12/04 08:09:47;;;;;;;115.82;40.28;;;;;;;0.19;100.00;101106.41;6461660;22;20018;-74
2022/12/04 08:12:17;;;;;;;120.47;40.88;;;;;;;0.17;100.00;101118.34;6461059;22;20454;-75
2022/12/04 08:14:48;;;;;;;115.05;41.25;;;;;;;0.16;100.00;101121.78;6498248;22;20008;-75
2022/12/04 08:17:19;;;;;;;115.47;41.22;;;;;;;0.12;100.00;101109.72;6497836;22;20031;-74
2022/12/04 08:19:49;;;;;;;121.00;40.53;;;;;;;0.19;100.00;101111.53;6460420;22;20004;-73
2022/12/04 08:22:19;;;;;;;117.00;41.22;;;;;;;0.22;100.00;101121.00;6499005;22;20027;-74
2022/12/04 08:24:50;;;;;;;112.63;39.50;;;;;;;0.19;100.00;101124.38;6497979;22;20050;-74
2022/12/04 08:27:20;;;;;;;121.85;40.97;;;;;;;0.20;100.00;101128.69;6460024;22;20003;-74
2022/12/04 08:29:50;;;;;;;119.28;40.75;;;;;;;0.21;100.00;101130.41;6498532;22;20423;-74
2022/12/04 08:32:22;;;;;;;123.13;42.60;;;;;;;0.23;100.00;101133.00;6498106;22;20163;-76
2022/12/04 08:34:52;;;;;;;117.10;39.45;;;;;;;0.24;100.00;101125.31;6493467;22;20562;-76
2022/12/04 08:37:23;;;;;;;109.68;38.60;;;;;;;0.23;100.00;101127.88;6484423;22;20058;-75
2022/12/04 08:39:53;;;;;;;119.72;40.42;;;;;;;0.23;100.00;101117.59;6497058;22;20008;-75
2022/12/04 08:42:24;;;;;;;125.15;41.50;;;;;;;0.19;100.00;101119.25;6497694;22;20451;-73
2022/12/04 08:44:54;;;;;;;118.35;40.78;;;;;;;0.28;100.00;101121.06;6463447;22;20083;-75
2022/12/04 08:47:26;;;;;;;119.97;41.78;;;;;;;0.29;100.00;101122.81;6472772;22;20055;-74
2022/12/04 08:50:00;;;;;;;112.05;37.47;;;;;;;0.32;100.00;101123.72;6470487;22;20003;-73
2022/12/04 08:52:31;;;;;;;107.90;39.25;;;;;;;0.26;100.00;101123.66;6495922;22;19996;-74
2022/12/04 08:55:02;;;;;;;121.35;41.13;;;;;;;0.20;100.00;101133.81;6468502;22;20082;-74
2022/12/04 08:57:32;;;;;;;120.65;40.90;;;;;;;0.22;100.00;101136.41;6462219;22;20042;-76
2022/12/04 09:00:04;;;;;;;128.18;42.42;;;;;;;0.26;100.00;101151.91;6459981;22;20087;-76
2022/12/04 09:02:34;;;;;;;124.72;40.15;;;;;;;0.24;100.00;101135.56;6497266;22;19995;-75
2022/12/04 09:05:05;;;;;;;130.55;41.83;;;;;;;0.22;100.00;101144.13;6486937;22;20149;-75
2022/12/04 09:07:35;;;;;;;116.20;39.58;;;;;;;0.25;100.00;101137.31;6496907;22;20010;-75
2022/12/04 09:10:06;;;;;;;115.88;39.90;;;;;;;0.24;100.00;101135.56;6497898;22;20053;-74
2022/12/04 09:12:36;;;;;;;111.95;38.28;;;;;;;0.27;100.00;101130.50;6496606;22;20007;-76
2022/12/04 09:15:07;;;;;;;128.85;40.97;;;;;;;0.35;100.00;101131.47;6496450;22;20027;-75
2022/12/04 09:17:37;;;;;;;111.22;38.45;;;;;;;0.31;100.00;101134.84;6486541;22;19996;-76
2022/12/04 09:20:08;;;;;;;116.05;39.13;;;;;;;0.31;100.00;101133.97;6460777;22;20014;-75
2022/12/04 09:22:39;;;;;;;115.13;40.33;;;;;;;0.31;100.00;101129.72;6497349;22;19995;-76
2022/12/04 09:25:10;;;;;;;112.50;38.67;;;;;;;0.34;100.00;101142.59;6461358;22;20003;-75
2022/12/04 09:27:42;;;;;;;118.28;39.95;;;;;;;0.35;100.00;101139.19;6500348;22;20363;-75
2022/12/04 09:30:12;;;;;;;113.43;39.25;;;;;;;0.34;100.00;101142.59;6497772;22;20014;-76
2022/12/04 09:32:43;;;;;;;116.15;40.83;;;;;;;0.36;100.00;101130.63;6460241;22;20027;-76
2022/12/04 09:35:13;;;;;;;107.65;37.85;;;;;;;0.40;100.00;101131.53;6496601;22;20386;-75
2022/12/04 09:37:43;;;;;;;112.60;38.50;;;;;;;0.37;100.00;101127.22;6496043;22;20082;-76
2022/12/04 09:40:25;;;;;;;102.78;36.13;;;;;;;0.35;100.00;101134.03;6460708;22;20008;-75
2022/12/04 09:43:18;;;;;;;104.35;36.03;;;;;;;0.43;100.00;101134.16;6460404;22;20505;-74
2022/12/04 09:45:54;;;;;;;114.05;38.05;;;;;;;0.43;100.00;101127.31;6461714;22;20453;-74
2022/12/04 09:48:36;;;;;;;105.63;37.72;;;;;;;0.45;100.00;101120.47;6498645;22;20007;-75
2022/12/04 09:51:17;;;;;;;102.03;35.67;;;;;;;0.50;100.00;101134.25;6500342;22;20031;-75
2022/12/04 09:53:56;;;;;;;102.88;36.10;;;;;;;0.42;100.00;101125.56;6497908;22;20410;-75
2022/12/04 09:56:29;;;;;;;98.53;36.00;;;;;;;0.43;100.00;101129.88;6460275;22;20003;-76
2022/12/04 09:59:10;;;;;;;103.38;36.72;;;;;;;0.46;100.00;101134.19;6496924;22;19999;-76
2022/12/04 10:01:40;;;;;;;101.30;36.70;;;;;;;0.44;100.00;101130.72;6500166;22;20003;-74
2022/12/04 10:04:11;;;;;;;98.43;35.88;;;;;;;0.54;100.00;101130.03;6500986;22;20013;-74
2022/12/04 10:06:59;;;;;;;99.57;34.10;;;;;;;0.50;100.00;101129.13;6499423;22;20022;-74
2022/12/04 10:09:41;;;;;;;101.75;36.05;;;;;;;0.58;100.00;101117.22;6500445;22;19999;-75
2022/12/04 10:12:19;;;;;;;92.20;34.88;;;;;;;0.53;100.00;101123.16;6489120;22;20022;-75
2022/12/04 10:15:10;;;;;;;94.00;34.97;;;;;;;0.53;100.00;101121.44;6457253;22;20157;-75
2022/12/04 10:17:56;;;;;;;91.22;33.42;;;;;;;0.55;100.00;101127.47;6498990;22;20000;-75
2022/12/04 10:20:45;;;;;;;101.28;36.28;;;;;;;0.55;100.00;101119.75;6495452;22;20478;-75
2022/12/04 10:23:45;;;;;;;99.63;36.65;;;;;;;0.69;100.00;101114.81;6487701;22;20080;-77
2022/12/04 10:26:17;;;;;;;97.78;36.70;;;;;;;0.58;100.00;101118.94;6469629;22;20078;-77
2022/12/04 10:28:58;;;;;;;97.20;34.42;;;;;;;0.61;100.00;101122.41;6497094;22;20351;-75
2022/12/04 10:31:31;;;;;;;95.65;34.65;;;;;;;0.67;100.00;101122.47;6496546;22;20007;-75
2022/12/04 10:34:13;;;;;;;97.72;36.13;;;;;;;0.71;100.00;101126.81;6471781;22;20008;-75
2022/12/04 10:36:57;;;;;;;88.93;33.10;;;;;;;0.73;100.00;101129.41;6496426;22;20078;-76
2022/12/04 10:39:49;;;;;;;84.28;33.38;;;;;;;0.70;100.00;101122.50;6487312;22;20022;-76
2022/12/04 10:42:24;;;;;;;85.82;32.38;;;;;;;0.70;100.00;101116.53;6497931;22;20312;-77
2022/12/04 10:44:55;;;;;;;98.57;33.03;;;;;;;0.70;100.00;101117.38;6498225;22;20019;-75
2022/12/04 10:47:26;;;;;;;84.88;30.70;;;;;;;0.75;100.00;101113.13;6497570;22;20007;-75
2022/12/04 10:50:03;;;;;;;85.28;32.38;;;;;;;0.70;100.00;101107.09;6488864;22;20082;-75
2022/12/04 10:52:33;;;;;;;90.20;32.08;;;;;;;0.73;100.00;101104.53;6490180;22;20451;-75
2022/12/04 10:57:42;;;;;;;82.80;31.33;;;;;;;0.84;100.00;101089.22;6453857;23;20093;-76
2022/12/04 11:00:34;;;;;;;79.07;30.77;;;;;;;0.69;100.00;101096.81;6426921;23;20103;-77
2022/12/04 11:03:21;;;;;;;86.50;32.30;;;;;;;0.79;100.00;101085.75;6466596;23;20004;-77
2022/12/04 11:06:00;;;;;;;88.47;32.65;;;;;;;0.74;100.00;101090.84;6439416;22;20010;-78
2022/12/04 11:08:48;;;;;;;82.40;32.00;;;;;;;0.70;100.00;101085.66;6495449;22;20438;-76
2022/12/04 11:11:38;;;;;;;91.20;32.88;;;;;;;0.71;100.00;101074.53;6495550;22;20082;-77
2022/12/04 11:14:17;;;;;;;90.70;33.40;;;;;;;0.69;100.00;101082.22;6485050;22;20189;-76
2022/12/04 11:16:58;;;;;;;90.65;33.28;;;;;;;0.74;100.00;101072.84;6495687;22;20003;-77
2022/12/04 11:19:33;;;;;;;88.40;33.17;;;;;;;0.80;100.00;101069.47;6497060;22;20015;-77
2022/12/04 11:22:18;;;;;;;83.07;33.35;;;;;;;0.79;100.00;101070.31;6486188;22;20442;-77
2022/12/04 11:24:53;;;;;;;95.25;32.83;;;;;;;0.74;100.00;101062.56;6497031;22;20007;-74
2022/12/04 11:27:33;;;;;;;88.22;33.60;;;;;;;0.72;100.00;101063.41;6485261;22;20039;-77
2022/12/04 11:30:34;;;;;;;84.20;32.35;;;;;;;0.74;100.00;101065.13;6495258;22;20467;-77
2022/12/04 11:33:15;;;;;;;99.55;33.05;;;;;;;0.78;100.00;101064.34;6495344;22;19999;-77
2022/12/04 11:35:54;;;;;;;88.82;32.15;;;;;;;0.89;100.00;101061.88;6493020;22;20011;-77
2022/12/04 11:38:27;;;;;;;98.75;34.58;;;;;;;0.82;100.00;101060.06;6455792;22;20010;-76
2022/12/04 11:40:58;;;;;;;90.35;33.83;;;;;;;0.90;100.00;101058.47;6495400;22;20394;-77
2022/12/04 11:43:31;;;;;;;87.55;31.92;;;;;;;0.87;100.00;101063.56;6486646;22;20014;-75
2022/12/04 11:46:05;;;;;;;85.75;31.65;;;;;;;0.95;100.00;101059.38;6494990;22;20413;-77
2022/12/04 11:48:44;;;;;;;92.07;32.55;;;;;;;0.87;100.00;101061.84;6486144;22;20049;-77
2022/12/04 11:51:30;;;;;;;95.70;35.03;;;;;;;0.89;100.00;101059.31;6457558;22;20003;-77